map of SKB home
SKB - Airport
Location
City:  Basseterre, St. Kitts Island, Saint Kitts and Nevis
Name:Robert L. Bradshaw International Airport
ICAO:TKPK
IATA:SKB

Details
Type:Airport (Aerodrome, Airfield)
Use:International (customs port of entry)
Latitude:1718'41"N (17.311389)
Longitude:6243'07"W (-62.718610)
Elevation:170 ft (52 m)
Variation:14.47W (WMM2015 magnetic declination)
-0.03 annual change
Runways:1
Longest:7598 × 148 ft (2316 × 45 m)

Time
Time Zone:UTC-4
Local Time:

Weather
METAR:TKPK 231300Z 09011KT 9999 SCT022 29/23 Q1014
TAF:TKPK 231120Z 2312/2412 06007KT P6SM VCSH FEW018 SCT030
FM231400 07013KT P6SM SCT024
FM232300 06008KT P6SM VCSH FEW018 SCT035

Related Locations
Nearby:
Farthest:PHE: 12204 mi / 19640 km
Port Hedland, WA, AU

Find:

   beyond  
but within

Other Information
Maps:
NOTAMs:
Links:
Sources:

  
  • flag of Saint Kitts and Nevis
  

Airport Diagram

Airport diagram for SKB

Airport diagram PDF

Sectional Chart

Flight Planning
at skyvector.com

Satellite Image

Google Maps Satellite view

 

Copyright © 2004-2018 Karl L. Swartz. All rights reserved.
The Great Circle Mapper name and logo are trademarks of the Great Circle Mapper.
All other trademarks mentioned herein belong to their respective owners.
Please see credits for attibutions and further copyright information.

  Follow gcmap on Facebook Follow gcmap on Twitter Follow gcmap on Google+ GCmap on LinkedIn

hCard Microformat

Geo Microformat